Gibraltar, Gibraltar
Current Conditions -  °F | °C
As of 1:50 PM on Thursday 30 Oct 2014 (Local Time) from LXGB Reporting Station
Few Clouds Few Clouds  
Wind Chill: 70°   Ceiling: Unl
Heat Index: 70°   Visibility: 6mi
Dew Point: 64°   Wind: 15mph
Humidity: 83%   Direction: 70°ENE
Pressure: 30.12"   Gusts: NA
Location:  36.14°N, 5.35°W
Report Text: LXGB 301150Z 07013KT 9999 FEW013 21/18 Q1020 NOSIG
Loading
Personal Weather Stations






























Interactive Weather Map
Tropical Storm Tracking
New forecast layout! Learn more

10-Day Weather Forecast

Advertisements
Track Severe Weather on mobile